createdAt,value
2023-04-13T00:02:46.411Z,17.16
2023-04-13T00:05:48.638Z,17.16
2023-04-13T00:08:51.007Z,17.15
2023-04-13T00:11:52.462Z,17.14
2023-04-13T00:14:53.812Z,17.14
2023-04-13T00:17:55.309Z,17.13
2023-04-13T00:20:57.186Z,17.12
2023-04-13T00:23:59.225Z,17.11
2023-04-13T00:27:01.123Z,17.10
2023-04-13T00:30:03.497Z,17.09
2023-04-13T00:33:05.068Z,17.08
2023-04-13T00:36:06.925Z,17.07
2023-04-13T00:39:08.350Z,17.07
2023-04-13T00:42:13.170Z,17.06
2023-04-13T00:45:15.252Z,17.05
2023-04-13T00:48:16.744Z,17.03
2023-04-13T00:51:18.389Z,17.04
2023-04-13T00:54:19.845Z,17.03
2023-04-13T00:57:21.263Z,17.03
2023-04-13T01:00:24.546Z,17.02
2023-04-13T01:03:28.240Z,17.02
2023-04-13T01:06:34.217Z,17.01
2023-04-13T01:09:41.055Z,16.99
2023-04-13T01:12:42.464Z,16.99
2023-04-13T01:15:52.111Z,16.98
2023-04-13T01:18:54.590Z,16.97
2023-04-13T01:21:56.420Z,16.97
2023-04-13T01:25:07.000Z,16.95
2023-04-13T01:28:09.678Z,16.95
2023-04-13T01:31:14.186Z,16.93
2023-04-13T01:34:16.536Z,16.92
2023-04-13T01:37:19.491Z,16.91
2023-04-13T01:40:24.054Z,16.90
2023-04-13T01:43:28.820Z,16.90
2023-04-13T01:46:43.153Z,16.90
2023-04-13T01:49:54.006Z,16.88
2023-04-13T01:53:27.860Z,16.87
2023-04-13T01:56:29.440Z,16.86
2023-04-13T01:59:35.530Z,16.86
2023-04-13T02:02:38.051Z,16.85
2023-04-13T02:05:40.556Z,16.84
2023-04-13T02:08:42.672Z,16.83
2023-04-13T02:11:44.244Z,16.81
2023-04-13T02:14:46.167Z,16.81
2023-04-13T02:17:47.819Z,16.80
2023-04-13T02:20:58.132Z,16.80
2023-04-13T02:23:59.659Z,16.80
2023-04-13T02:27:02.012Z,16.80
2023-04-13T02:30:03.715Z,16.80
2023-04-13T02:33:07.259Z,16.79
2023-04-13T02:36:09.284Z,16.78
2023-04-13T02:39:13.859Z,16.77
2023-04-13T02:42:16.310Z,16.77
2023-04-13T02:45:18.307Z,16.73
2023-04-13T02:48:23.542Z,16.74
2023-04-13T02:51:25.046Z,16.73
2023-04-13T02:54:26.478Z,16.74
2023-04-13T02:57:28.201Z,16.73
2023-04-13T03:00:32.950Z,16.73
2023-04-13T03:03:39.384Z,16.73
2023-04-13T03:06:44.131Z,16.72
2023-04-13T03:09:47.152Z,16.73
2023-04-13T03:12:50.421Z,16.75
2023-04-13T03:15:52.734Z,16.77
2023-04-13T03:18:56.173Z,16.79
2023-04-13T03:21:57.771Z,16.79
2023-04-13T03:25:02.666Z,16.82
2023-04-13T03:28:09.591Z,16.83
2023-04-13T03:31:17.250Z,16.85
2023-04-13T03:34:18.893Z,16.87
2023-04-13T03:37:21.592Z,16.88
2023-04-13T03:40:23.436Z,16.91
2023-04-13T03:43:27.336Z,16.92
2023-04-13T03:46:37.670Z,16.94
2023-04-13T03:49:49.677Z,16.95
2023-04-13T03:52:52.100Z,16.95
2023-04-13T03:55:54.163Z,16.97
2023-04-13T03:58:55.891Z,16.98
2023-04-13T04:02:02.632Z,16.97
2023-04-13T04:05:04.894Z,16.97
2023-04-13T04:08:06.703Z,16.98
2023-04-13T04:11:08.261Z,16.97
2023-04-13T04:14:10.189Z,16.97
2023-04-13T04:17:13.028Z,16.95
2023-04-13T04:20:15.050Z,16.97
2023-04-13T04:23:19.723Z,16.96
2023-04-13T04:26:30.036Z,16.94
2023-04-13T04:29:34.807Z,16.93
2023-04-13T04:32:49.291Z,16.93
2023-04-13T04:35:55.035Z,16.93
2023-04-13T04:39:04.522Z,16.92
2023-04-13T04:42:12.208Z,16.91
2023-04-13T04:45:17.484Z,16.89
2023-04-13T04:48:24.870Z,16.90
2023-04-13T04:51:27.877Z,16.89
2023-04-13T04:54:30.166Z,16.89
2023-04-13T04:57:35.664Z,16.88
2023-04-13T05:00:38.757Z,16.89
2023-04-13T05:03:49.472Z,16.88
2023-04-13T05:06:58.281Z,16.89
2023-04-13T05:10:00.668Z,16.92
2023-04-13T05:13:02.228Z,16.94
2023-04-13T05:16:05.807Z,16.95
2023-04-13T05:19:08.941Z,16.98
2023-04-13T05:22:21.437Z,16.99
2023-04-13T05:25:29.697Z,17.00
2023-04-13T05:28:36.059Z,17.00
2023-04-13T05:31:37.960Z,17.01
2023-04-13T05:34:39.381Z,17.02
2023-04-13T05:37:47.741Z,17.03
2023-04-13T05:40:54.494Z,17.03
2023-04-13T05:43:57.082Z,17.02
2023-04-13T05:46:58.586Z,17.02
2023-04-13T05:50:00.149Z,17.01
2023-04-13T05:53:01.588Z,17.01
2023-04-13T05:56:10.847Z,17.01
2023-04-13T05:59:14.370Z,17.00
2023-04-13T06:02:16.238Z,17.00
2023-04-13T06:05:18.446Z,17.00
2023-04-13T06:08:21.749Z,16.98
2023-04-13T06:11:26.254Z,16.98
2023-04-13T06:14:27.832Z,16.98
2023-04-13T06:17:29.398Z,16.97
2023-04-13T06:20:33.359Z,16.98
2023-04-13T06:23:34.777Z,16.97
2023-04-13T06:26:40.784Z,16.96
2023-04-13T06:29:42.370Z,16.95
2023-04-13T06:32:45.779Z,16.96
2023-04-13T06:35:52.126Z,16.94
2023-04-13T06:38:55.348Z,16.94
2023-04-13T06:41:57.762Z,16.93
2023-04-13T06:45:17.886Z,16.93
2023-04-13T06:48:19.476Z,16.91
2023-04-13T06:51:23.742Z,16.90
2023-04-13T06:54:27.051Z,16.89
2023-04-13T06:57:35.415Z,16.90
2023-04-13T07:00:37.485Z,16.88
2023-04-13T07:03:39.239Z,16.88
2023-04-13T07:06:42.041Z,16.87
2023-04-13T07:09:43.900Z,16.87
2023-04-13T07:12:45.994Z,16.87
2023-04-13T07:15:47.869Z,16.87
2023-04-13T07:18:49.486Z,16.87
2023-04-13T07:21:51.139Z,16.86
2023-04-13T07:24:52.610Z,16.86
2023-04-13T07:27:55.253Z,16.85
2023-04-13T07:30:57.471Z,16.85
2023-04-13T07:33:59.073Z,16.84
2023-04-13T07:37:08.836Z,16.85
2023-04-13T07:40:11.749Z,16.84
2023-04-13T07:43:15.048Z,16.84
2023-04-13T07:46:20.456Z,16.83
2023-04-13T07:49:24.369Z,16.82
2023-04-13T07:52:26.464Z,16.81
2023-04-13T07:55:28.739Z,16.81
2023-04-13T07:58:31.734Z,16.81
2023-04-13T08:01:33.479Z,16.80
2023-04-13T08:04:37.298Z,16.80
2023-04-13T08:07:40.057Z,16.80
2023-04-13T08:10:42.441Z,16.80
2023-04-13T08:13:43.892Z,16.80
2023-04-13T08:16:45.334Z,16.81
2023-04-13T08:19:47.152Z,16.80
2023-04-13T08:22:49.613Z,16.79
2023-04-13T08:25:54.834Z,16.79
2023-04-13T08:28:57.517Z,16.78
2023-04-13T08:31:59.258Z,16.78
2023-04-13T08:35:07.075Z,16.77
2023-04-13T08:38:09.240Z,16.77
2023-04-13T08:41:16.805Z,16.76
2023-04-13T08:44:23.516Z,16.76
2023-04-13T08:47:27.967Z,16.76
2023-04-13T08:50:29.471Z,16.76
2023-04-13T08:53:32.800Z,16.76
2023-04-13T08:56:45.362Z,16.75
2023-04-13T08:59:52.467Z,16.74
2023-04-13T09:03:04.936Z,16.73
2023-04-13T09:06:10.567Z,16.74
2023-04-13T09:09:14.618Z,16.74
2023-04-13T09:12:16.756Z,16.73
2023-04-13T09:15:18.558Z,16.74
2023-04-13T09:18:52.971Z,16.72
2023-04-13T09:21:54.340Z,16.73
2023-04-13T09:24:55.711Z,16.72
2023-04-13T09:27:57.220Z,16.73
2023-04-13T09:31:02.286Z,16.72
2023-04-13T09:34:03.842Z,16.73
2023-04-13T09:37:12.757Z,16.71
2023-04-13T09:40:15.199Z,16.72
2023-04-13T09:43:17.044Z,16.71
2023-04-13T09:46:18.545Z,16.72
2023-04-13T09:49:19.972Z,16.72
2023-04-13T09:52:22.892Z,16.70
2023-04-13T09:55:24.354Z,16.69
2023-04-13T09:58:26.464Z,16.70
2023-04-13T10:01:28.747Z,16.70
2023-04-13T10:04:31.046Z,16.68
2023-04-13T10:07:36.926Z,16.68
2023-04-13T10:10:39.518Z,16.69
2023-04-13T10:13:53.475Z,16.68
2023-04-13T10:16:57.967Z,16.68
2023-04-13T10:20:01.578Z,16.68
2023-04-13T10:23:03.735Z,16.67
2023-04-13T10:26:06.581Z,16.66
2023-04-13T10:29:09.083Z,16.66
2023-04-13T10:32:20.493Z,16.66
2023-04-13T10:35:21.850Z,16.65
2023-04-13T10:38:23.583Z,16.65
2023-04-13T10:41:25.370Z,16.65
2023-04-13T10:44:26.762Z,16.64
2023-04-13T10:47:35.672Z,16.65
2023-04-13T10:50:38.817Z,16.65
2023-04-13T10:53:40.205Z,16.64
2023-04-13T10:56:41.661Z,16.64
2023-04-13T10:59:58.935Z,16.65
2023-04-13T11:03:02.822Z,16.64
2023-04-13T11:06:04.893Z,16.64
2023-04-13T11:09:07.313Z,16.63
2023-04-13T11:12:11.832Z,16.62
2023-04-13T11:15:19.338Z,16.63
2023-04-13T11:18:25.600Z,16.62
2023-04-13T11:21:27.038Z,16.61
2023-04-13T11:24:33.807Z,16.60
2023-04-13T11:27:37.918Z,16.60
2023-04-13T11:30:39.490Z,16.60
2023-04-13T11:33:41.059Z,16.61
2023-04-13T11:36:44.660Z,16.62
2023-04-13T11:39:46.304Z,16.62
2023-04-13T11:42:48.921Z,16.64
2023-04-13T11:45:50.435Z,16.63
2023-04-13T11:48:52.483Z,16.64
2023-04-13T11:51:54.310Z,16.64
2023-04-13T11:54:55.788Z,16.65
2023-04-13T11:57:58.652Z,16.65
2023-04-13T12:01:12.795Z,16.66
2023-04-13T12:04:16.754Z,16.67
2023-04-13T12:07:18.832Z,16.67
2023-04-13T12:10:39.362Z,16.67
2023-04-13T12:13:50.320Z,16.68
2023-04-13T12:17:34.694Z,16.69
2023-04-13T12:20:39.687Z,16.69
2023-04-13T12:23:52.375Z,16.68
2023-04-13T12:30:02.277Z,16.67
2023-04-13T12:33:03.669Z,16.67
2023-04-13T12:36:11.186Z,16.66
2023-04-13T12:39:12.534Z,16.67
2023-04-13T12:42:13.913Z,16.66
2023-04-13T12:45:16.553Z,16.66
2023-04-13T12:48:18.497Z,16.66
2023-04-13T12:51:19.876Z,16.66
2023-04-13T12:54:21.267Z,16.66
2023-04-13T12:57:22.635Z,16.66
2023-04-13T13:00:24.066Z,16.66
2023-04-13T13:03:25.599Z,16.67
2023-04-13T13:06:27.735Z,16.67
2023-04-13T13:09:29.157Z,16.68
2023-04-13T13:12:30.786Z,16.68
2023-04-13T13:15:32.646Z,16.70
2023-04-13T13:18:47.012Z,16.70
2023-04-13T13:21:51.542Z,16.72
2023-04-13T13:24:52.905Z,16.72
2023-04-13T13:28:13.046Z,16.73
2023-04-13T13:31:15.877Z,16.74
2023-04-13T13:34:17.436Z,16.74
2023-04-13T13:37:18.783Z,16.75
2023-04-13T13:40:20.195Z,16.76
2023-04-13T13:43:21.639Z,16.76
2023-04-13T13:46:23.217Z,16.77
2023-04-13T13:49:27.164Z,16.78
2023-04-13T13:52:55.265Z,16.79
2023-04-13T13:56:02.941Z,16.80
2023-04-13T13:59:04.656Z,16.81
2023-04-13T14:02:07.517Z,16.82
2023-04-13T14:05:12.985Z,16.82
2023-04-13T14:08:14.478Z,16.82
2023-04-13T14:11:16.010Z,16.83
2023-04-13T14:14:21.600Z,16.82
2023-04-13T14:17:24.095Z,16.83
2023-04-13T14:20:25.776Z,16.81
2023-04-13T14:23:27.292Z,16.82
2023-04-13T14:26:28.677Z,16.83
2023-04-13T14:29:30.059Z,16.83
2023-04-13T14:32:31.978Z,16.84
2023-04-13T14:35:33.475Z,16.84
2023-04-13T14:38:34.883Z,16.84
2023-04-13T14:41:36.519Z,16.84
2023-04-13T14:44:38.131Z,16.85
2023-04-13T14:47:42.256Z,16.87
2023-04-13T14:50:43.663Z,16.88
2023-04-13T14:53:45.055Z,16.92
2023-04-13T14:56:46.442Z,16.94
2023-04-13T14:59:47.972Z,17.00
2023-04-13T15:02:49.914Z,17.02
2023-04-13T15:05:58.405Z,17.07
2023-04-13T15:09:04.417Z,17.11
2023-04-13T15:12:12.747Z,17.14
2023-04-13T15:15:15.687Z,17.15
2023-04-13T15:18:17.179Z,17.17
2023-04-13T15:21:18.620Z,17.21
2023-04-13T15:24:20.002Z,17.24
2023-04-13T15:27:21.558Z,17.26
2023-04-13T15:30:26.379Z,17.28
2023-04-13T15:33:27.770Z,17.31
2023-04-13T15:36:29.784Z,17.33
2023-04-13T15:39:31.413Z,17.34
2023-04-13T15:42:32.785Z,17.34
2023-04-13T15:45:34.484Z,17.36
2023-04-13T15:48:35.890Z,17.38
2023-04-13T15:51:37.336Z,17.39
2023-04-13T15:54:38.693Z,17.41
2023-04-13T15:57:40.139Z,17.41
2023-04-13T16:00:41.857Z,17.43
2023-04-13T16:03:43.545Z,17.43
2023-04-13T16:06:45.167Z,17.43
2023-04-13T16:09:47.745Z,17.43
2023-04-13T16:12:50.006Z,17.43
2023-04-13T16:15:55.611Z,17.41
2023-04-13T16:18:57.368Z,17.40
2023-04-13T16:21:58.957Z,17.39
2023-04-13T16:25:00.485Z,17.40
2023-04-13T16:28:01.911Z,17.39
2023-04-13T16:31:03.442Z,17.38
2023-04-13T16:34:18.391Z,17.37
2023-04-13T16:37:26.763Z,17.37
2023-04-13T16:40:28.258Z,17.36
2023-04-13T16:43:29.839Z,17.36
2023-04-13T16:46:31.402Z,17.35
2023-04-13T16:49:33.415Z,17.35
2023-04-13T16:52:35.620Z,17.35
2023-04-13T16:55:36.961Z,17.34
2023-04-13T16:58:38.386Z,17.34
2023-04-13T17:01:39.974Z,17.32
2023-04-13T17:04:41.437Z,17.33
2023-04-13T17:07:43.830Z,17.32
2023-04-13T17:10:46.142Z,17.31
2023-04-13T17:13:47.519Z,17.31
2023-04-13T17:16:48.976Z,17.29
2023-04-13T17:19:53.876Z,17.29
2023-04-13T17:22:57.131Z,17.29
2023-04-13T17:25:58.596Z,17.29
2023-04-13T17:29:01.752Z,17.29
2023-04-13T17:32:03.939Z,17.30
2023-04-13T17:35:06.094Z,17.32
2023-04-13T17:38:07.573Z,17.33
2023-04-13T17:41:10.889Z,17.35
2023-04-13T17:44:12.257Z,17.36
2023-04-13T17:47:14.118Z,17.39
2023-04-13T17:50:15.597Z,17.41
2023-04-13T17:53:17.030Z,17.43
2023-04-13T17:56:18.660Z,17.45
2023-04-13T17:59:20.168Z,17.46
2023-04-13T18:02:21.753Z,17.47
2023-04-13T18:05:24.005Z,17.49
2023-04-13T18:08:25.512Z,17.49
2023-04-13T18:11:27.682Z,17.52
2023-04-13T18:14:29.132Z,17.51
2023-04-13T18:17:30.881Z,17.53
2023-04-13T18:20:32.335Z,17.55
2023-04-13T18:23:33.709Z,17.58
2023-04-13T18:26:35.523Z,17.59
2023-04-13T18:29:36.993Z,17.61
2023-04-13T18:32:38.401Z,17.62
2023-04-13T18:35:43.565Z,17.63
2023-04-13T18:38:45.370Z,17.65
2023-04-13T18:41:47.135Z,17.66
2023-04-13T18:44:48.614Z,17.65
2023-04-13T18:47:49.985Z,17.63
2023-04-13T18:50:51.416Z,17.61
2023-04-13T18:53:52.794Z,17.60
2023-04-13T18:56:54.156Z,17.59
2023-04-13T18:59:56.796Z,17.60
2023-04-13T19:02:58.368Z,17.60
2023-04-13T19:06:00.124Z,17.60
2023-04-13T19:09:01.617Z,17.58
2023-04-13T19:12:03.616Z,17.58
2023-04-13T19:15:05.382Z,17.57
2023-04-13T19:18:07.626Z,17.55
2023-04-13T19:21:09.103Z,17.54
2023-04-13T19:24:13.001Z,17.53
2023-04-13T19:27:14.749Z,17.51
2023-04-13T19:30:17.276Z,17.51
2023-04-13T19:33:19.092Z,17.50
2023-04-13T19:36:20.613Z,17.50
2023-04-13T19:39:21.981Z,17.49
2023-04-13T19:42:25.253Z,17.48
2023-04-13T19:45:26.719Z,17.48
2023-04-13T19:48:28.182Z,17.48
2023-04-13T19:51:30.912Z,17.47
2023-04-13T19:54:32.572Z,17.46
2023-04-13T19:57:36.488Z,17.46
2023-04-13T20:00:38.433Z,17.45
2023-04-13T20:03:40.362Z,17.45
2023-04-13T20:06:41.844Z,17.45
2023-04-13T20:09:43.415Z,17.44
2023-04-13T20:12:44.822Z,17.43
2023-04-13T20:15:46.370Z,17.42
2023-04-13T20:18:47.740Z,17.41
2023-04-13T20:21:51.167Z,17.40
2023-04-13T20:24:52.588Z,17.41
2023-04-13T20:27:54.489Z,17.39
2023-04-13T20:30:55.927Z,17.38
2023-04-13T20:33:57.432Z,17.38
2023-04-13T20:36:59.036Z,17.38
2023-04-13T20:40:00.545Z,17.37
2023-04-13T20:43:02.173Z,17.37
2023-04-13T20:46:03.663Z,17.35
2023-04-13T20:49:05.379Z,17.35
2023-04-13T20:52:07.336Z,17.34
2023-04-13T20:55:10.110Z,17.34
2023-04-13T20:58:11.520Z,17.33
2023-04-13T21:01:12.993Z,17.32
2023-04-13T21:04:14.470Z,17.32
2023-04-13T21:07:16.247Z,17.29
2023-04-13T21:10:17.762Z,17.30
2023-04-13T21:13:19.230Z,17.29
2023-04-13T21:16:20.617Z,17.27
2023-04-13T21:19:22.310Z,17.25
2023-04-13T21:22:23.669Z,17.23
2023-04-13T21:25:25.562Z,17.23
2023-04-13T21:28:26.908Z,17.21
2023-04-13T21:31:28.258Z,17.20
2023-04-13T21:34:29.628Z,17.19
2023-04-13T21:37:31.107Z,17.17
2023-04-13T21:40:34.474Z,17.16
2023-04-13T21:43:35.822Z,17.16
2023-04-13T21:46:37.281Z,17.14
2023-04-13T21:49:38.775Z,17.13
2023-04-13T21:52:40.487Z,17.12
2023-04-13T21:55:41.862Z,17.12
2023-04-13T21:58:45.300Z,17.10
2023-04-13T22:01:47.167Z,17.09
2023-04-13T22:04:48.752Z,17.08
2023-04-13T22:07:50.203Z,17.08
2023-04-13T22:10:51.712Z,17.07
2023-04-13T22:13:53.144Z,17.07
2023-04-13T22:16:54.581Z,17.06
2023-04-13T22:19:56.185Z,17.05
2023-04-13T22:22:57.648Z,17.04
2023-04-13T22:26:01.169Z,17.03
2023-04-13T22:29:03.169Z,17.03
2023-04-13T22:32:04.681Z,17.02
2023-04-13T22:35:06.553Z,17.01
2023-04-13T22:38:07.974Z,17.01
2023-04-13T22:41:09.732Z,17.02
2023-04-13T22:44:11.209Z,17.01
2023-04-13T22:47:12.561Z,17.01
2023-04-13T22:50:13.941Z,17.01
2023-04-13T22:53:15.607Z,17.01
2023-04-13T22:56:17.053Z,17.00
2023-04-13T22:59:18.559Z,17.00
2023-04-13T23:02:20.053Z,16.99
2023-04-13T23:05:21.627Z,16.98
2023-04-13T23:08:23.086Z,16.98
2023-04-13T23:11:24.562Z,16.98
2023-04-13T23:14:25.939Z,16.97
2023-04-13T23:17:27.369Z,16.97
2023-04-13T23:20:29.207Z,16.96
2023-04-13T23:23:30.569Z,16.95
2023-04-13T23:26:31.947Z,16.95
2023-04-13T23:29:33.439Z,16.97
2023-04-13T23:32:34.963Z,16.95
2023-04-13T23:35:36.422Z,16.94
2023-04-13T23:38:37.878Z,16.94
2023-04-13T23:41:39.254Z,16.93
2023-04-13T23:44:40.894Z,16.93
2023-04-13T23:47:42.518Z,16.92
2023-04-13T23:50:44.619Z,16.92
2023-04-13T23:53:46.266Z,16.91
2023-04-13T23:56:47.655Z,16.89
2023-04-13T23:59:49.067Z,16.89
